createdAt,value
2018-10-21T00:00:22.709Z,89.72
2018-10-21T00:01:22.884Z,89.90
2018-10-21T00:02:23.084Z,90.00
2018-10-21T00:03:23.230Z,90.00
2018-10-21T00:04:23.400Z,90.19
2018-10-21T00:05:23.564Z,90.47
2018-10-21T00:06:23.742Z,91.04
2018-10-21T00:07:23.917Z,90.95
2018-10-21T00:08:24.096Z,90.95
2018-10-21T00:09:24.271Z,90.66
2018-10-21T00:10:24.444Z,90.66
2018-10-21T00:11:24.623Z,90.76
2018-10-21T00:12:24.794Z,91.04
2018-10-21T00:13:24.972Z,90.66
2018-10-21T00:14:25.141Z,90.19
2018-10-21T00:15:25.454Z,90.57
2018-10-21T00:16:25.484Z,89.90
2018-10-21T00:17:25.655Z,90.00
2018-10-21T00:18:25.826Z,89.81
2018-10-21T00:19:26.077Z,89.72
2018-10-21T00:20:26.131Z,89.90
2018-10-21T00:21:26.307Z,89.53
2018-10-21T00:22:26.482Z,88.95
2018-10-21T00:23:26.652Z,89.14
2018-10-21T00:24:26.828Z,88.76
2018-10-21T00:25:27.003Z,88.76
2018-10-21T00:26:27.179Z,89.14
2018-10-21T00:27:27.352Z,88.95
2018-10-21T00:28:27.529Z,88.86
2018-10-21T00:29:27.702Z,88.48
2018-10-21T00:30:27.876Z,88.86
2018-10-21T00:31:28.054Z,88.48
2018-10-21T00:32:28.229Z,88.67
2018-10-21T00:33:28.420Z,88.86
2018-10-21T00:34:28.588Z,88.86
2018-10-21T00:35:28.785Z,88.67
2018-10-21T00:36:28.920Z,88.67
2018-10-21T00:37:29.093Z,88.57
2018-10-21T00:38:29.271Z,88.53
2018-10-21T00:39:29.445Z,88.53
2018-10-21T00:40:29.625Z,88.53
2018-10-21T00:41:29.789Z,88.91
2018-10-21T00:42:29.968Z,89.10
2018-10-21T00:43:30.141Z,89.29
2018-10-21T00:44:30.326Z,89.48
2018-10-21T00:45:30.498Z,89.10
2018-10-21T00:46:30.671Z,89.29
2018-10-21T00:47:30.842Z,89.86
2018-10-21T00:48:31.015Z,89.48
2018-10-21T00:49:31.196Z,89.29
2018-10-21T00:50:31.379Z,89.10
2018-10-21T00:51:31.553Z,89.39
2018-10-21T00:52:31.733Z,89.20
2018-10-21T00:53:31.893Z,89.10
2018-10-21T00:54:32.065Z,89.20
2018-10-21T00:55:32.229Z,89.67
2018-10-21T00:56:32.421Z,89.67
2018-10-21T00:57:32.592Z,89.76
2018-10-21T00:58:32.771Z,89.67
2018-10-21T00:59:33.000Z,89.86
2018-10-21T01:00:33.056Z,89.39
2018-10-21T01:01:33.233Z,89.48
2018-10-21T01:02:33.418Z,89.76
2018-10-21T01:03:33.596Z,89.20
2018-10-21T01:04:33.761Z,89.10
2018-10-21T01:05:33.955Z,89.00
2018-10-21T01:06:34.139Z,88.91
2018-10-21T01:07:34.314Z,88.43
2018-10-21T01:08:34.521Z,88.81
2018-10-21T01:09:34.664Z,88.34
2018-10-21T01:10:34.829Z,88.53
2018-10-21T01:11:35.027Z,88.53
2018-10-21T01:12:35.208Z,88.62
2018-10-21T01:13:35.378Z,88.53
2018-10-21T01:14:35.716Z,88.81
2018-10-21T01:15:35.765Z,89.39
2018-10-21T01:16:36.008Z,89.20
2018-10-21T01:17:36.090Z,89.48
2018-10-21T01:18:36.265Z,88.91
2018-10-21T01:19:36.454Z,89.10
2018-10-21T01:20:36.627Z,89.20
2018-10-21T01:21:36.794Z,89.29
2018-10-21T01:22:36.965Z,89.76
2018-10-21T01:23:37.139Z,89.95
2018-10-21T01:24:37.312Z,89.29
2018-10-21T01:25:37.491Z,89.48
2018-10-21T01:26:37.661Z,89.20
2018-10-21T01:27:37.837Z,89.29
2018-10-21T01:28:38.013Z,89.39
2018-10-21T01:29:38.190Z,89.48
2018-10-21T01:30:38.369Z,89.20
2018-10-21T01:31:38.536Z,89.29
2018-10-21T01:32:38.712Z,88.91
2018-10-21T01:33:38.892Z,88.91
2018-10-21T01:34:39.065Z,88.81
2018-10-21T01:35:39.239Z,89.20
2018-10-21T01:36:39.502Z,89.10
2018-10-21T01:37:39.604Z,89.10
2018-10-21T01:38:39.770Z,88.91
2018-10-21T01:39:39.948Z,89.39
2018-10-21T01:40:40.128Z,89.67
2018-10-21T01:41:40.296Z,89.67
2018-10-21T01:42:40.475Z,89.48
2018-10-21T01:43:40.681Z,89.95
2018-10-21T01:44:40.848Z,89.48
2018-10-21T01:45:41.027Z,89.86
2018-10-21T01:46:41.197Z,89.86
2018-10-21T01:47:41.371Z,89.86
2018-10-21T01:48:41.555Z,89.76
2018-10-21T01:49:41.724Z,89.86
2018-10-21T01:50:41.900Z,90.05
2018-10-21T01:51:42.070Z,89.48
2018-10-21T01:52:42.238Z,89.48
2018-10-21T01:53:42.405Z,89.48
2018-10-21T01:54:42.578Z,89.10
2018-10-21T01:55:42.756Z,89.20
2018-10-21T01:56:42.938Z,89.48
2018-10-21T01:57:43.110Z,89.10
2018-10-21T01:58:43.275Z,88.91
2018-10-21T01:59:43.458Z,89.00
2018-10-21T02:00:43.627Z,89.29
2018-10-21T02:01:43.799Z,89.10
2018-10-21T02:02:43.976Z,89.00
2018-10-21T02:03:44.150Z,89.10
2018-10-21T02:04:44.322Z,89.20
2018-10-21T02:05:44.506Z,89.10
2018-10-21T02:06:44.675Z,89.10
2018-10-21T02:07:45.439Z,89.00
2018-10-21T02:08:45.030Z,88.81
2018-10-21T02:09:45.206Z,88.62
2018-10-21T02:10:45.396Z,88.53
2018-10-21T02:11:45.558Z,88.72
2018-10-21T02:12:45.727Z,89.10
2018-10-21T02:13:45.896Z,89.39
2018-10-21T02:14:46.066Z,89.39
2018-10-21T02:15:46.246Z,89.20
2018-10-21T02:16:46.422Z,89.20
2018-10-21T02:17:46.601Z,89.20
2018-10-21T02:18:46.775Z,89.48
2018-10-21T02:19:46.940Z,89.86
2018-10-21T02:20:47.109Z,89.58
2018-10-21T02:21:47.281Z,89.95
2018-10-21T02:22:47.451Z,89.86
2018-10-21T02:23:47.625Z,89.67
2018-10-21T02:24:47.803Z,89.95
2018-10-21T02:25:47.983Z,89.86
2018-10-21T02:26:50.568Z,90.24
2018-10-21T02:27:48.359Z,90.52
2018-10-21T02:28:48.535Z,90.62
2018-10-21T02:29:48.711Z,90.52
2018-10-21T02:30:48.888Z,90.62
2018-10-21T02:31:49.058Z,90.62
2018-10-21T02:32:49.233Z,90.81
2018-10-21T02:33:49.404Z,90.52
2018-10-21T02:34:49.578Z,90.33
2018-10-21T02:35:49.780Z,90.52
2018-10-21T02:36:49.849Z,91.00
2018-10-21T02:37:50.025Z,90.71
2018-10-21T02:38:50.205Z,90.90
2018-10-21T02:39:50.380Z,90.90
2018-10-21T02:40:50.563Z,90.81
2018-10-21T02:41:50.728Z,90.71
2018-10-21T02:42:50.899Z,90.71
2018-10-21T02:43:51.061Z,90.71
2018-10-21T02:44:51.263Z,90.62
2018-10-21T02:45:51.437Z,91.47
2018-10-21T02:46:51.610Z,91.28
2018-10-21T02:47:51.792Z,91.09
2018-10-21T02:48:51.965Z,91.47
2018-10-21T02:49:52.143Z,91.09
2018-10-21T02:50:52.314Z,90.90
2018-10-21T02:51:52.488Z,90.81
2018-10-21T02:52:52.656Z,90.81
2018-10-21T02:53:52.836Z,90.71
2018-10-21T02:54:53.083Z,90.90
2018-10-21T02:55:53.181Z,90.52
2018-10-21T02:56:53.436Z,90.81
2018-10-21T02:57:53.530Z,90.52
2018-10-21T02:58:53.703Z,91.14
2018-10-21T02:59:53.866Z,90.47
2018-10-21T03:00:54.052Z,90.19
2018-10-21T03:01:54.219Z,90.00
2018-10-21T03:02:54.428Z,89.95
2018-10-21T03:03:54.561Z,89.81
2018-10-21T03:04:54.730Z,89.62
2018-10-21T03:05:54.902Z,89.62
2018-10-21T03:06:55.083Z,89.90
2018-10-21T03:07:55.254Z,90.05
2018-10-21T03:08:55.458Z,90.47
2018-10-21T03:09:55.593Z,90.28
2018-10-21T03:10:55.766Z,89.72
2018-10-21T03:11:55.931Z,89.72
2018-10-21T03:12:56.136Z,89.95
2018-10-21T03:13:56.327Z,89.90
2018-10-21T03:14:56.562Z,89.72
2018-10-21T03:15:56.673Z,89.72
2018-10-21T03:16:56.843Z,89.81
2018-10-21T03:17:57.015Z,90.00
2018-10-21T03:18:57.193Z,90.00
2018-10-21T03:19:57.371Z,90.09
2018-10-21T03:20:57.598Z,90.38
2018-10-21T03:21:57.719Z,90.05
2018-10-21T03:22:57.888Z,90.66
2018-10-21T03:23:58.072Z,90.90
2018-10-21T03:24:58.232Z,90.14
2018-10-21T03:25:58.407Z,90.90
2018-10-21T03:26:58.593Z,91.00
2018-10-21T03:27:58.762Z,90.62
2018-10-21T03:28:58.967Z,90.62
2018-10-21T03:29:59.142Z,90.81
2018-10-21T03:30:59.327Z,90.71
2018-10-21T03:31:59.487Z,90.62
2018-10-21T03:32:59.775Z,90.62
2018-10-21T03:34:00.060Z,90.52
2018-10-21T03:35:00.028Z,91.00
2018-10-21T03:36:00.207Z,90.47
2018-10-21T03:37:00.381Z,89.95
2018-10-21T03:38:00.552Z,89.95
2018-10-21T03:39:00.746Z,89.58
2018-10-21T03:40:00.928Z,89.67
2018-10-21T03:41:01.088Z,89.62
2018-10-21T03:42:01.259Z,89.86
2018-10-21T03:43:01.425Z,90.19
2018-10-21T03:44:01.596Z,89.72
2018-10-21T03:45:01.757Z,89.90
2018-10-21T03:46:01.935Z,89.90
2018-10-21T03:47:02.107Z,90.28
2018-10-21T03:48:02.280Z,90.28
2018-10-21T03:49:02.449Z,90.38
2018-10-21T03:50:02.622Z,90.09
2018-10-21T03:51:02.793Z,89.95
2018-10-21T03:52:03.298Z,90.33
2018-10-21T03:53:03.373Z,89.86
2018-10-21T03:54:03.619Z,89.95
2018-10-21T03:55:03.447Z,90.05
2018-10-21T03:56:03.618Z,90.33
2018-10-21T03:57:03.785Z,90.52
2018-10-21T03:58:03.958Z,90.62
2018-10-21T03:59:04.128Z,90.81
2018-10-21T04:00:04.297Z,90.62
2018-10-21T04:01:04.473Z,90.24
2018-10-21T04:02:04.641Z,91.00
2018-10-21T04:03:04.851Z,90.05
2018-10-21T04:04:05.113Z,89.95
2018-10-21T04:05:05.202Z,89.67
2018-10-21T04:06:05.390Z,90.05
2018-10-21T04:07:05.583Z,90.24
2018-10-21T04:08:05.779Z,90.33
2018-10-21T04:09:05.949Z,90.14
2018-10-21T04:10:06.151Z,89.95
2018-10-21T04:11:06.299Z,90.05
2018-10-21T04:12:06.481Z,89.86
2018-10-21T04:13:06.655Z,90.24
2018-10-21T04:14:06.826Z,90.05
2018-10-21T04:15:06.990Z,89.86
2018-10-21T04:16:07.247Z,89.67
2018-10-21T04:17:07.366Z,89.90
2018-10-21T04:18:07.543Z,89.86
2018-10-21T04:19:07.719Z,89.90
2018-10-21T04:20:07.905Z,89.43
2018-10-21T04:21:09.859Z,89.76
2018-10-21T04:22:09.023Z,89.72
2018-10-21T04:23:11.362Z,89.86
2018-10-21T04:24:11.221Z,89.81
2018-10-21T04:25:11.540Z,89.62
2018-10-21T04:26:11.027Z,89.43
2018-10-21T04:27:09.018Z,89.14
2018-10-21T04:28:09.277Z,89.00
2018-10-21T04:29:09.366Z,89.48
2018-10-21T04:30:09.531Z,89.20
2018-10-21T04:31:09.719Z,89.67
2018-10-21T04:32:09.886Z,89.39
2018-10-21T04:33:10.059Z,89.95
2018-10-21T04:34:10.323Z,89.67
2018-10-21T04:35:10.428Z,89.39
2018-10-21T04:36:10.498Z,90.24
2018-10-21T04:37:10.666Z,90.05
2018-10-21T04:38:10.841Z,90.62
2018-10-21T04:39:11.014Z,90.62
2018-10-21T04:40:11.222Z,90.71
2018-10-21T04:41:11.365Z,90.52
2018-10-21T04:42:11.543Z,90.62
2018-10-21T04:43:11.715Z,90.71
2018-10-21T04:44:11.891Z,90.62
2018-10-21T04:45:12.064Z,90.62
2018-10-21T04:46:12.256Z,90.90
2018-10-21T04:47:12.443Z,90.52
2018-10-21T04:48:12.589Z,91.00
2018-10-21T04:49:12.761Z,90.71
2018-10-21T04:50:12.934Z,90.81
2018-10-21T04:51:13.113Z,90.71
2018-10-21T04:52:13.399Z,90.52
2018-10-21T04:53:13.466Z,90.62
2018-10-21T04:54:13.634Z,90.71
2018-10-21T04:55:13.804Z,90.90
2018-10-21T04:56:13.995Z,90.71
2018-10-21T04:57:14.166Z,90.81
2018-10-21T04:58:14.458Z,90.90
2018-10-21T04:59:15.245Z,90.81
2018-10-21T05:00:16.493Z,91.66
2018-10-21T05:01:16.044Z,91.47
2018-10-21T05:02:17.018Z,91.38
2018-10-21T05:03:17.358Z,91.47
2018-10-21T05:04:16.416Z,91.00
2018-10-21T05:05:16.348Z,90.81
2018-10-21T05:06:16.943Z,90.81
2018-10-21T05:07:17.729Z,90.43
2018-10-21T05:08:17.621Z,90.62
2018-10-21T05:09:17.891Z,90.62
2018-10-21T05:10:18.595Z,90.52
2018-10-21T05:11:18.018Z,90.81
2018-10-21T05:12:17.904Z,90.90
2018-10-21T05:13:19.203Z,90.43
2018-10-21T05:14:17.914Z,90.33
2018-10-21T05:15:18.312Z,90.24
2018-10-21T05:16:19.700Z,89.86
2018-10-21T05:17:20.407Z,89.86
2018-10-21T05:18:19.925Z,89.86
2018-10-21T05:19:17.858Z,90.05
2018-10-21T05:20:18.739Z,89.86
2018-10-21T05:21:18.196Z,89.76
2018-10-21T05:22:18.446Z,89.76
2018-10-21T05:23:18.541Z,89.67
2018-10-21T05:24:18.720Z,89.58
2018-10-21T05:25:18.891Z,89.67
2018-10-21T05:26:19.068Z,89.67
2018-10-21T05:27:19.238Z,89.58
2018-10-21T05:28:19.409Z,89.58
2018-10-21T05:29:19.576Z,89.76
2018-10-21T05:30:19.743Z,90.33
2018-10-21T05:31:19.924Z,90.24
2018-10-21T05:32:20.101Z,90.43
2018-10-21T05:33:20.287Z,90.62
2018-10-21T05:34:20.454Z,90.43
2018-10-21T05:35:20.623Z,91.00
2018-10-21T05:36:20.804Z,91.00
2018-10-21T05:37:20.962Z,90.62
2018-10-21T05:38:21.137Z,91.00
2018-10-21T05:39:21.305Z,91.00
2018-10-21T05:40:21.487Z,90.71
2018-10-21T05:41:21.663Z,90.81
2018-10-21T05:42:21.826Z,90.81
2018-10-21T05:43:21.999Z,90.52
2018-10-21T05:44:22.179Z,91.00
2018-10-21T05:45:22.352Z,90.24
2018-10-21T05:46:22.523Z,90.71
2018-10-21T05:47:22.702Z,90.24
2018-10-21T05:48:22.865Z,90.24
2018-10-21T05:49:23.033Z,90.43
2018-10-21T05:50:23.254Z,90.24
2018-10-21T05:51:23.417Z,89.95
2018-10-21T05:52:23.580Z,90.24
2018-10-21T05:53:23.752Z,90.14
2018-10-21T05:54:23.928Z,90.05
2018-10-21T05:55:24.092Z,90.81
2018-10-21T05:56:24.263Z,90.24
2018-10-21T05:57:24.432Z,90.71
2018-10-21T05:58:24.699Z,90.90
2018-10-21T05:59:24.812Z,90.81
2018-10-21T06:00:24.994Z,91.66
2018-10-21T06:01:25.164Z,91.66
2018-10-21T06:02:25.336Z,91.75
2018-10-21T06:03:25.509Z,91.47
2018-10-21T06:04:25.677Z,91.47
2018-10-21T06:05:25.849Z,91.66
2018-10-21T06:06:26.023Z,91.19
2018-10-21T06:07:26.190Z,90.81
2018-10-21T06:08:26.401Z,90.90
2018-10-21T06:09:26.590Z,90.81
2018-10-21T06:10:26.772Z,90.90
2018-10-21T06:11:26.940Z,90.90
2018-10-21T06:12:27.117Z,90.90
2018-10-21T06:13:27.281Z,90.66
2018-10-21T06:14:27.460Z,90.14
2018-10-21T06:15:27.634Z,89.95
2018-10-21T06:16:27.816Z,90.05
2018-10-21T06:17:27.984Z,90.19
2018-10-21T06:18:28.156Z,90.57
2018-10-21T06:19:28.329Z,90.47
2018-10-21T06:20:28.496Z,89.90
2018-10-21T06:21:28.667Z,90.09
2018-10-21T06:22:28.844Z,89.90
2018-10-21T06:23:29.017Z,90.09
2018-10-21T06:24:29.189Z,89.90
2018-10-21T06:25:29.354Z,89.81
2018-10-21T06:26:29.552Z,89.62
2018-10-21T06:27:29.781Z,89.33
2018-10-21T06:28:29.903Z,89.43
2018-10-21T06:29:30.089Z,90.09
2018-10-21T06:30:30.257Z,89.72
2018-10-21T06:31:30.435Z,89.53
2018-10-21T06:32:30.598Z,89.43
2018-10-21T06:33:30.824Z,89.72
2018-10-21T06:34:30.932Z,89.53
2018-10-21T06:35:31.136Z,89.43
2018-10-21T06:36:31.320Z,89.05
2018-10-21T06:37:31.486Z,89.14
2018-10-21T06:38:31.667Z,89.14
2018-10-21T06:39:31.926Z,89.05
2018-10-21T06:40:31.982Z,89.05
2018-10-21T06:41:32.147Z,88.48
2018-10-21T06:42:32.332Z,88.76
2018-10-21T06:43:32.505Z,88.57
2018-10-21T06:44:32.739Z,88.76
2018-10-21T06:45:32.898Z,88.48
2018-10-21T06:46:33.041Z,88.39
2018-10-21T06:47:33.224Z,88.76
2018-10-21T06:48:33.475Z,88.39
2018-10-21T06:49:33.567Z,88.76
2018-10-21T06:50:33.739Z,88.67
2018-10-21T06:51:33.921Z,88.57
2018-10-21T06:52:34.084Z,88.57
2018-10-21T06:53:34.281Z,88.67
2018-10-21T06:54:34.460Z,88.57
2018-10-21T06:55:34.629Z,88.76
2018-10-21T06:56:34.978Z,88.67
2018-10-21T06:57:35.023Z,88.71
2018-10-21T06:58:35.161Z,88.05
2018-10-21T06:59:35.328Z,88.15
2018-10-21T07:00:35.504Z,87.86
2018-10-21T07:01:35.681Z,87.95
2018-10-21T07:02:35.870Z,87.38
2018-10-21T07:03:36.355Z,87.29
2018-10-21T07:04:36.311Z,86.95
2018-10-21T07:05:36.453Z,86.95
2018-10-21T07:06:36.636Z,85.43
2018-10-21T07:07:36.811Z,85.15
2018-10-21T07:08:36.977Z,85.05
2018-10-21T07:09:37.154Z,84.29
2018-10-21T07:10:37.320Z,84.14
2018-10-21T07:11:37.501Z,83.91
2018-10-21T07:12:37.930Z,83.58
2018-10-21T07:13:37.865Z,83.19
2018-10-21T07:14:38.022Z,82.53
2018-10-21T07:15:38.244Z,82.53
2018-10-21T07:16:38.500Z,82.24
2018-10-21T07:17:38.542Z,82.71
2018-10-21T07:18:38.715Z,82.62
2018-10-21T07:19:39.364Z,82.81
2018-10-21T07:20:39.377Z,82.34
2018-10-21T07:21:39.133Z,82.19
2018-10-21T07:22:39.352Z,80.90
2018-10-21T07:23:39.807Z,79.03
2018-10-21T07:24:41.387Z,77.89
2018-10-21T07:25:39.804Z,76.31
2018-10-21T07:26:41.660Z,74.98
2018-10-21T07:27:40.320Z,74.40
2018-10-21T07:28:40.635Z,74.69
2018-10-21T07:29:40.547Z,75.07
2018-10-21T07:30:41.772Z,74.88
2018-10-21T07:31:41.306Z,75.93
2018-10-21T07:32:44.108Z,75.74
2018-10-21T07:33:43.182Z,76.03
2018-10-21T07:34:41.734Z,76.27
2018-10-21T07:35:41.713Z,76.08
2018-10-21T07:36:42.740Z,76.27
2018-10-21T07:37:42.096Z,75.93
2018-10-21T07:38:43.762Z,75.07
2018-10-21T07:39:44.810Z,73.96
2018-10-21T07:40:42.651Z,73.49
2018-10-21T07:41:43.254Z,72.76
2018-10-21T07:42:43.348Z,72.72
2018-10-21T07:43:44.242Z,72.57
2018-10-21T07:44:44.182Z,72.38
2018-10-21T07:45:43.798Z,72.09
2018-10-21T07:46:42.942Z,71.91
2018-10-21T07:47:43.219Z,72.44
2018-10-21T07:48:43.280Z,72.76
2018-10-21T07:49:43.549Z,72.72
2018-10-21T07:50:43.577Z,72.38
2018-10-21T07:51:43.753Z,72.96
2018-10-21T07:52:43.952Z,72.53
2018-10-21T07:53:44.129Z,72.44
2018-10-21T07:54:44.314Z,73.21
2018-10-21T07:55:44.623Z,74.12
2018-10-21T07:56:44.777Z,74.60
2018-10-21T07:57:45.161Z,74.21
2018-10-21T07:58:46.019Z,75.16
2018-10-21T07:59:46.710Z,75.89
2018-10-21T08:00:46.199Z,75.60
2018-10-21T08:01:45.865Z,76.37
2018-10-21T08:02:45.578Z,76.94
2018-10-21T08:03:46.269Z,76.56
2018-10-21T08:04:46.092Z,76.75
2018-10-21T08:05:46.291Z,77.13
2018-10-21T08:06:46.718Z,77.61
2018-10-21T08:07:46.503Z,78.08
2018-10-21T08:08:46.594Z,77.80
2018-10-21T08:09:48.584Z,78.08
2018-10-21T08:10:47.140Z,77.61
2018-10-21T08:11:48.279Z,77.98
2018-10-21T08:12:47.182Z,78.33
2018-10-21T08:13:47.372Z,78.85
2018-10-21T08:14:47.585Z,78.56
2018-10-21T08:15:47.719Z,78.65
2018-10-21T08:16:47.922Z,78.94
2018-10-21T08:17:48.072Z,78.46
2018-10-21T08:18:48.255Z,78.46
2018-10-21T08:19:48.435Z,78.85
2018-10-21T08:20:48.688Z,79.03
2018-10-21T08:21:48.804Z,79.22
2018-10-21T08:22:48.995Z,79.60
2018-10-21T08:23:49.252Z,79.22
2018-10-21T08:24:50.253Z,79.51
2018-10-21T08:25:49.566Z,79.13
2018-10-21T08:26:49.717Z,79.41
2018-10-21T08:27:49.881Z,79.51
2018-10-21T08:28:50.058Z,79.07
2018-10-21T08:29:50.235Z,78.56
2018-10-21T08:30:50.410Z,78.88
2018-10-21T08:31:50.588Z,78.46
2018-10-21T08:32:50.771Z,78.31
2018-10-21T08:33:50.950Z,79.03
2018-10-21T08:34:51.121Z,79.32
2018-10-21T08:35:51.371Z,79.64
2018-10-21T08:36:51.517Z,79.41
2018-10-21T08:37:51.593Z,79.07
2018-10-21T08:38:51.992Z,79.36
2018-10-21T08:39:51.911Z,78.88
2018-10-21T08:40:52.153Z,78.41
2018-10-21T08:41:52.242Z,78.88
2018-10-21T08:42:52.451Z,78.25
2018-10-21T08:43:52.593Z,77.97
2018-10-21T08:44:52.772Z,77.01
2018-10-21T08:45:53.032Z,76.82
2018-10-21T08:46:53.117Z,76.54
2018-10-21T08:47:53.307Z,76.20
2018-10-21T08:48:53.546Z,76.10
2018-10-21T08:49:53.711Z,75.81
2018-10-21T08:50:54.013Z,75.81
2018-10-21T08:51:54.049Z,74.71
2018-10-21T08:52:54.217Z,74.04
2018-10-21T08:53:54.368Z,73.69
2018-10-21T08:54:54.599Z,72.68
2018-10-21T08:55:54.847Z,71.47
2018-10-21T08:56:54.881Z,70.04
2018-10-21T08:57:56.590Z,69.02
2018-10-21T08:58:55.190Z,67.82
2018-10-21T08:59:55.380Z,67.05
2018-10-21T09:00:55.600Z,66.61
2018-10-21T09:01:55.771Z,65.17
2018-10-21T09:02:55.940Z,64.34
2018-10-21T09:03:56.187Z,63.39
2018-10-21T09:04:56.309Z,62.74
2018-10-21T09:05:56.490Z,61.91
2018-10-21T09:06:58.245Z,60.86
2018-10-21T09:07:56.869Z,60.70
2018-10-21T09:08:58.908Z,60.50
2018-10-21T09:09:57.178Z,59.16
2018-10-21T09:10:57.425Z,59.00
2018-10-21T09:11:57.444Z,58.52
2018-10-21T09:12:57.644Z,58.26
2018-10-21T09:13:57.790Z,57.01
2018-10-21T09:14:57.988Z,56.73
2018-10-21T09:15:58.167Z,56.46
2018-10-21T09:16:58.336Z,56.37
2018-10-21T09:17:58.547Z,56.53
2018-10-21T09:18:58.762Z,56.46
2018-10-21T09:19:58.919Z,56.49
2018-10-21T09:20:59.109Z,56.49
2018-10-21T09:21:59.335Z,55.63
2018-10-21T09:22:59.498Z,54.89
2018-10-21T09:23:59.686Z,54.79
2018-10-21T09:24:59.899Z,53.64
2018-10-21T09:26:00.045Z,53.45
2018-10-21T09:27:00.256Z,53.19
2018-10-21T09:28:00.472Z,52.97
2018-10-21T09:29:00.619Z,54.38
2018-10-21T09:30:00.830Z,55.38
2018-10-21T09:31:01.032Z,56.34
2018-10-21T09:32:01.169Z,57.30
2018-10-21T09:33:01.359Z,56.92
2018-10-21T09:34:01.658Z,56.27
2018-10-21T09:35:01.745Z,56.15
2018-10-21T09:36:01.913Z,57.01
2018-10-21T09:37:02.138Z,57.14
2018-10-21T09:38:02.280Z,56.37
2018-10-21T09:39:02.473Z,56.76
2018-10-21T09:40:02.692Z,57.40
2018-10-21T09:41:02.745Z,58.04
2018-10-21T09:42:02.985Z,58.81
2018-10-21T09:43:03.144Z,59.64
2018-10-21T09:44:03.315Z,59.74
2018-10-21T09:45:03.498Z,59.74
2018-10-21T09:46:03.692Z,60.50
2018-10-21T09:47:03.857Z,60.70
2018-10-21T09:48:04.028Z,61.27
2018-10-21T09:49:04.246Z,60.96
2018-10-21T09:50:04.512Z,61.56
2018-10-21T09:51:04.590Z,61.24
2018-10-21T09:52:04.795Z,61.63
2018-10-21T09:53:04.965Z,61.82
2018-10-21T09:54:05.117Z,62.39
2018-10-21T09:55:05.295Z,62.30
2018-10-21T09:56:05.467Z,62.81
2018-10-21T09:57:05.634Z,62.33
2018-10-21T09:58:05.851Z,62.62
2018-10-21T09:59:06.001Z,61.75
2018-10-21T10:00:06.170Z,61.46
2018-10-21T10:01:06.392Z,61.46
2018-10-21T10:02:06.525Z,61.30
2018-10-21T10:03:06.690Z,61.59
2018-10-21T10:04:06.918Z,61.11
2018-10-21T10:05:07.106Z,60.25
2018-10-21T10:06:07.291Z,60.44
2018-10-21T10:07:07.583Z,59.77
2018-10-21T10:08:07.579Z,59.67
2018-10-21T10:09:07.768Z,59.70
2018-10-21T10:10:11.124Z,59.73
2018-10-21T10:11:10.344Z,58.87
2018-10-21T10:12:08.288Z,57.75
2018-10-21T10:13:08.517Z,57.36
2018-10-21T10:14:08.633Z,56.81
2018-10-21T10:15:08.833Z,56.45
2018-10-21T10:16:09.092Z,56.45
2018-10-21T10:17:09.314Z,54.72
2018-10-21T10:18:09.376Z,54.49
2018-10-21T10:19:09.601Z,54.30
2018-10-21T10:20:09.745Z,52.81
2018-10-21T10:21:09.918Z,52.45
2018-10-21T10:22:10.185Z,51.29
2018-10-21T10:23:10.310Z,51.22
2018-10-21T10:24:10.463Z,50.16
2018-10-21T10:25:10.792Z,50.06
2018-10-21T10:26:10.856Z,49.29
2018-10-21T10:27:11.032Z,49.77
2018-10-21T10:28:11.283Z,50.09
2018-10-21T10:29:11.409Z,49.51
2018-10-21T10:30:11.596Z,48.93
2018-10-21T10:31:11.838Z,48.44
2018-10-21T10:32:11.959Z,48.54
2018-10-21T10:33:12.133Z,48.57
2018-10-21T10:34:12.365Z,48.66
2018-10-21T10:35:12.501Z,48.21
2018-10-21T10:36:12.733Z,47.24
2018-10-21T10:37:13.090Z,46.95
2018-10-21T10:38:13.087Z,46.78
2018-10-21T10:39:13.138Z,47.45
2018-10-21T10:40:13.402Z,47.16
2018-10-21T10:41:13.531Z,47.26
2018-10-21T10:42:13.786Z,47.36
2018-10-21T10:43:13.990Z,46.92
2018-10-21T10:44:14.114Z,48.08
2018-10-21T10:45:14.287Z,48.18
2018-10-21T10:46:14.555Z,47.43
2018-10-21T10:47:14.699Z,47.14
2018-10-21T10:48:14.753Z,47.14
2018-10-21T10:49:14.967Z,46.66
2018-10-21T10:50:15.118Z,47.14
2018-10-21T10:51:15.302Z,47.36
2018-10-21T10:52:15.608Z,47.55
2018-10-21T10:53:15.693Z,47.09
2018-10-21T10:54:15.866Z,46.80
2018-10-21T10:55:16.100Z,45.86
2018-10-21T10:56:16.226Z,44.98
2018-10-21T10:57:16.404Z,44.89
2018-10-21T10:58:16.643Z,44.60
2018-10-21T10:59:16.757Z,44.70
2018-10-21T11:00:16.969Z,44.40
2018-10-21T11:01:17.173Z,44.91
2018-10-21T11:02:17.293Z,44.72
2018-10-21T11:03:17.481Z,44.64
2018-10-21T11:04:17.696Z,44.06
2018-10-21T11:05:17.850Z,43.89
2018-10-21T11:06:18.057Z,44.09
2018-10-21T11:07:18.226Z,42.92
2018-10-21T11:08:18.471Z,42.26
2018-10-21T11:09:18.627Z,42.46
2018-10-21T11:10:18.883Z,42.17
2018-10-21T11:11:18.991Z,41.49
2018-10-21T11:12:19.199Z,41.68
2018-10-21T11:13:19.379Z,41.70
2018-10-21T11:14:19.557Z,42.38
2018-10-21T11:15:19.741Z,42.38
2018-10-21T11:16:19.933Z,41.68
2018-10-21T11:17:20.114Z,41.68
2018-10-21T11:18:20.306Z,42.19
2018-10-21T11:19:20.500Z,41.72
2018-10-21T11:20:20.671Z,40.95
2018-10-21T11:21:20.848Z,40.95
2018-10-21T11:22:21.130Z,40.48
2018-10-21T11:23:21.214Z,40.48
2018-10-21T11:24:21.403Z,40.29
2018-10-21T11:25:21.593Z,40.19
2018-10-21T11:26:21.784Z,39.92
2018-10-21T11:27:21.972Z,39.72
2018-10-21T11:28:22.146Z,39.72
2018-10-21T11:29:22.335Z,39.14
2018-10-21T11:30:22.544Z,38.87
2018-10-21T11:31:22.711Z,38.67
2018-10-21T11:32:22.903Z,38.48
2018-10-21T11:33:23.089Z,37.90
2018-10-21T11:34:23.283Z,38.07
2018-10-21T11:35:23.490Z,38.17
2018-10-21T11:36:23.659Z,38.19
2018-10-21T11:37:23.911Z,38.27
2018-10-21T11:38:24.058Z,38.57
2018-10-21T11:39:24.249Z,37.99
2018-10-21T11:40:24.437Z,37.68
2018-10-21T11:41:24.627Z,37.20
2018-10-21T11:42:24.807Z,37.18
2018-10-21T11:43:25.000Z,37.59
2018-10-21T11:44:25.183Z,37.98
2018-10-21T11:45:25.362Z,38.75
2018-10-21T11:46:25.554Z,38.73
2018-10-21T11:47:25.735Z,38.17
2018-10-21T11:48:25.973Z,37.98
2018-10-21T11:49:26.104Z,38.56
2018-10-21T11:50:26.288Z,38.56
2018-10-21T11:51:26.467Z,38.37
2018-10-21T11:52:26.660Z,38.46
2018-10-21T11:53:26.839Z,37.98
2018-10-21T11:54:27.022Z,38.07
2018-10-21T11:55:27.206Z,37.68
2018-10-21T11:56:27.391Z,37.76
2018-10-21T11:57:27.572Z,37.76
2018-10-21T11:58:27.762Z,37.66
2018-10-21T11:59:27.948Z,38.34
2018-10-21T12:00:28.139Z,38.73
2018-10-21T12:01:28.324Z,38.15
2018-10-21T12:02:28.507Z,38.15
2018-10-21T12:03:28.701Z,37.66
2018-10-21T12:04:28.879Z,38.32
2018-10-21T12:05:29.064Z,38.42
2018-10-21T12:06:29.276Z,38.42
2018-10-21T12:07:29.440Z,38.62
2018-10-21T12:08:29.654Z,38.62
2018-10-21T12:09:29.839Z,38.89
2018-10-21T12:10:30.014Z,39.45
2018-10-21T12:11:30.220Z,38.87
2018-10-21T12:12:30.386Z,39.67
2018-10-21T12:13:30.571Z,39.37
2018-10-21T12:14:30.754Z,39.43
2018-10-21T12:15:30.937Z,39.62
2018-10-21T12:16:31.137Z,40.13
2018-10-21T12:17:31.316Z,40.52
2018-10-21T12:18:31.505Z,40.13
2018-10-21T12:19:31.682Z,40.33
2018-10-21T12:20:31.869Z,40.13
2018-10-21T12:21:32.054Z,40.23
2018-10-21T12:22:32.283Z,39.06
2018-10-21T12:23:32.504Z,39.43
2018-10-21T12:24:32.655Z,39.62
2018-10-21T12:25:32.823Z,39.80
2018-10-21T12:26:33.643Z,39.80
2018-10-21T12:27:33.201Z,40.17
2018-10-21T12:28:33.380Z,40.84
2018-10-21T12:29:33.555Z,40.94
2018-10-21T12:30:33.738Z,41.42
2018-10-21T12:31:33.989Z,41.04
2018-10-21T12:32:34.055Z,41.14
2018-10-21T12:33:34.229Z,41.04
2018-10-21T12:34:34.427Z,41.50
2018-10-21T12:35:34.587Z,42.08
2018-10-21T12:36:34.784Z,42.82
2018-10-21T12:37:34.959Z,43.30
2018-10-21T12:38:35.144Z,44.42
2018-10-21T12:39:35.319Z,44.97
2018-10-21T12:40:35.514Z,46.20
2018-10-21T12:41:35.713Z,47.34
2018-10-21T12:42:35.912Z,47.70
2018-10-21T12:43:36.277Z,47.67
2018-10-21T12:44:36.215Z,49.32
2018-10-21T12:45:36.390Z,50.63
2018-10-21T12:46:36.605Z,51.76
2018-10-21T12:47:36.670Z,52.63
2018-10-21T12:48:36.857Z,53.11
2018-10-21T12:49:37.035Z,52.89
2018-10-21T12:50:37.222Z,53.76
2018-10-21T12:51:37.406Z,53.28
2018-10-21T12:52:37.644Z,53.54
2018-10-21T12:53:37.801Z,53.92
2018-10-21T12:54:38.116Z,54.12